sensor_id;sensor_type;location;lat;lon;timestamp;temperature;humidity
47961;DHT22;33721;48.852;9.936;2023-02-28T00:01:11;-2.10;99.90
47961;DHT22;33721;48.852;9.936;2023-02-28T00:03:37;-2.10;99.90
47961;DHT22;33721;48.852;9.936;2023-02-28T00:06:04;-2.10;99.90
47961;DHT22;33721;48.852;9.936;2023-02-28T00:08:30;-2.10;99.90
47961;DHT22;33721;48.852;9.936;2023-02-28T00:10:56;-2.10;99.90
47961;DHT22;33721;48.852;9.936;2023-02-28T00:13:21;-2.20;99.90
47961;DHT22;33721;48.852;9.936;2023-02-28T00:15:47;-2.20;99.90
47961;DHT22;33721;48.852;9.936;2023-02-28T00:18:13;-2.10;99.90
47961;DHT22;33721;48.852;9.936;2023-02-28T00:20:38;-2.10;99.90
47961;DHT22;33721;48.852;9.936;2023-02-28T00:23:04;-2.10;99.90
47961;DHT22;33721;48.852;9.936;2023-02-28T00:25:30;-2.10;99.90
47961;DHT22;33721;48.852;9.936;2023-02-28T00:27:55;-2.10;99.90
47961;DHT22;33721;48.852;9.936;2023-02-28T00:30:22;-2.10;99.90
47961;DHT22;33721;48.852;9.936;2023-02-28T00:32:49;-2.10;99.90
47961;DHT22;33721;48.852;9.936;2023-02-28T00:35:15;-2.10;99.90
47961;DHT22;33721;48.852;9.936;2023-02-28T00:37:41;-2.10;99.90
47961;DHT22;33721;48.852;9.936;2023-02-28T00:40:07;-2.10;99.90
47961;DHT22;33721;48.852;9.936;2023-02-28T00:42:34;-2.00;99.90
47961;DHT22;33721;48.852;9.936;2023-02-28T00:45:00;-2.00;99.90
47961;DHT22;33721;48.852;9.936;2023-02-28T00:47:26;-2.10;99.90
47961;DHT22;33721;48.852;9.936;2023-02-28T00:49:52;-2.10;99.90
47961;DHT22;33721;48.852;9.936;2023-02-28T00:52:17;-2.10;99.90
47961;DHT22;33721;48.852;9.936;2023-02-28T00:54:43;-2.10;99.90
47961;DHT22;33721;48.852;9.936;2023-02-28T00:57:08;-2.10;99.90
47961;DHT22;33721;48.852;9.936;2023-02-28T00:59:35;-2.10;99.90
47961;DHT22;33721;48.852;9.936;2023-02-28T01:02:00;-2.00;99.90
47961;DHT22;33721;48.852;9.936;2023-02-28T01:04:26;-2.00;99.90
47961;DHT22;33721;48.852;9.936;2023-02-28T01:06:52;-2.00;99.90
47961;DHT22;33721;48.852;9.936;2023-02-28T01:09:18;-2.10;99.90
47961;DHT22;33721;48.852;9.936;2023-02-28T01:11:44;-2.10;99.90
47961;DHT22;33721;48.852;9.936;2023-02-28T01:14:15;-2.10;99.90
47961;DHT22;33721;48.852;9.936;2023-02-28T01:16:41;-2.10;99.90
47961;DHT22;33721;48.852;9.936;2023-02-28T01:19:07;-2.00;99.90
47961;DHT22;33721;48.852;9.936;2023-02-28T01:21:32;-2.00;99.90
47961;DHT22;33721;48.852;9.936;2023-02-28T01:24:00;-2.00;99.90
47961;DHT22;33721;48.852;9.936;2023-02-28T01:26:25;-2.00;99.90
47961;DHT22;33721;48.852;9.936;2023-02-28T01:28:52;-2.00;99.90
47961;DHT22;33721;48.852;9.936;2023-02-28T01:31:19;-2.00;99.90
47961;DHT22;33721;48.852;9.936;2023-02-28T01:33:45;-2.00;99.90
47961;DHT22;33721;48.852;9.936;2023-02-28T01:36:17;-2.00;99.90
47961;DHT22;33721;48.852;9.936;2023-02-28T01:38:44;-2.00;99.90
47961;DHT22;33721;48.852;9.936;2023-02-28T01:41:16;-2.00;99.90
47961;DHT22;33721;48.852;9.936;2023-02-28T01:46:07;-2.10;99.90
47961;DHT22;33721;48.852;9.936;2023-02-28T01:48:36;-2.10;99.90
47961;DHT22;33721;48.852;9.936;2023-02-28T01:51:07;-2.10;99.90
47961;DHT22;33721;48.852;9.936;2023-02-28T01:53:38;-2.10;99.90
47961;DHT22;33721;48.852;9.936;2023-02-28T01:56:07;-2.10;99.90
47961;DHT22;33721;48.852;9.936;2023-02-28T01:58:35;-2.10;99.90
47961;DHT22;33721;48.852;9.936;2023-02-28T02:01:01;-2.20;99.90
47961;DHT22;33721;48.852;9.936;2023-02-28T02:03:29;-2.20;99.90
47961;DHT22;33721;48.852;9.936;2023-02-28T02:05:55;-2.20;99.90
47961;DHT22;33721;48.852;9.936;2023-02-28T02:08:26;-2.20;99.90
47961;DHT22;33721;48.852;9.936;2023-02-28T02:10:59;-2.30;99.90
47961;DHT22;33721;48.852;9.936;2023-02-28T02:16:21;-2.30;99.90
47961;DHT22;33721;48.852;9.936;2023-02-28T02:18:52;-2.30;99.90
47961;DHT22;33721;48.852;9.936;2023-02-28T02:30:14;-2.40;99.90
47961;DHT22;33721;48.852;9.936;2023-02-28T02:33:09;-2.40;99.90
47961;DHT22;33721;48.852;9.936;2023-02-28T02:38:48;-2.40;99.90
47961;DHT22;33721;48.852;9.936;2023-02-28T02:43:49;-2.40;99.90
47961;DHT22;33721;48.852;9.936;2023-02-28T02:46:29;-2.40;99.90
47961;DHT22;33721;48.852;9.936;2023-02-28T02:49:00;-2.40;99.90
47961;DHT22;33721;48.852;9.936;2023-02-28T02:51:30;-2.40;99.90
47961;DHT22;33721;48.852;9.936;2023-02-28T02:54:20;-2.40;99.90
47961;DHT22;33721;48.852;9.936;2023-02-28T02:56:48;-2.40;99.90
47961;DHT22;33721;48.852;9.936;2023-02-28T02:59:18;-2.30;99.90
47961;DHT22;33721;48.852;9.936;2023-02-28T03:01:50;-2.30;99.90
47961;DHT22;33721;48.852;9.936;2023-02-28T03:04:20;-2.30;99.90
47961;DHT22;33721;48.852;9.936;2023-02-28T03:06:46;-2.30;99.90
47961;DHT22;33721;48.852;9.936;2023-02-28T03:09:12;-2.30;99.90
47961;DHT22;33721;48.852;9.936;2023-02-28T03:11:38;-2.30;99.90
47961;DHT22;33721;48.852;9.936;2023-02-28T03:17:04;-2.30;99.90
47961;DHT22;33721;48.852;9.936;2023-02-28T03:19:51;-2.30;99.90
47961;DHT22;33721;48.852;9.936;2023-02-28T03:23:13;-2.30;99.90
47961;DHT22;33721;48.852;9.936;2023-02-28T03:30:30;-2.30;99.90
47961;DHT22;33721;48.852;9.936;2023-02-28T03:33:05;-2.20;99.90
47961;DHT22;33721;48.852;9.936;2023-02-28T03:35:48;-2.20;99.90
47961;DHT22;33721;48.852;9.936;2023-02-28T03:38:20;-2.20;99.90
47961;DHT22;33721;48.852;9.936;2023-02-28T03:40:51;-2.20;99.90
47961;DHT22;33721;48.852;9.936;2023-02-28T03:43:24;-2.20;99.90
47961;DHT22;33721;48.852;9.936;2023-02-28T03:45:51;-2.20;99.90
47961;DHT22;33721;48.852;9.936;2023-02-28T03:50:45;-2.20;99.90
47961;DHT22;33721;48.852;9.936;2023-02-28T03:53:24;-2.30;99.90
47961;DHT22;33721;48.852;9.936;2023-02-28T03:56:11;-2.20;99.90
47961;DHT22;33721;48.852;9.936;2023-02-28T04:01:23;-2.20;99.90
47961;DHT22;33721;48.852;9.936;2023-02-28T04:03:50;-2.20;99.90
47961;DHT22;33721;48.852;9.936;2023-02-28T04:06:18;-2.30;99.90
47961;DHT22;33721;48.852;9.936;2023-02-28T04:08:44;-2.20;99.90
47961;DHT22;33721;48.852;9.936;2023-02-28T04:13:48;-2.20;99.90
47961;DHT22;33721;48.852;9.936;2023-02-28T04:16:14;-2.20;99.90
47961;DHT22;33721;48.852;9.936;2023-02-28T04:18:39;-2.20;99.90
47961;DHT22;33721;48.852;9.936;2023-02-28T04:21:06;-2.20;99.90
47961;DHT22;33721;48.852;9.936;2023-02-28T04:23:32;-2.20;99.90
47961;DHT22;33721;48.852;9.936;2023-02-28T04:25:58;-2.20;99.90
47961;DHT22;33721;48.852;9.936;2023-02-28T04:28:24;-2.20;99.90
47961;DHT22;33721;48.852;9.936;2023-02-28T04:31:02;-2.20;99.90
47961;DHT22;33721;48.852;9.936;2023-02-28T04:33:29;-2.20;99.90
47961;DHT22;33721;48.852;9.936;2023-02-28T04:36:03;-2.20;99.90
47961;DHT22;33721;48.852;9.936;2023-02-28T04:38:32;-2.20;99.90
47961;DHT22;33721;48.852;9.936;2023-02-28T04:40:59;-2.20;99.90
47961;DHT22;33721;48.852;9.936;2023-02-28T04:43:26;-2.20;99.90
47961;DHT22;33721;48.852;9.936;2023-02-28T04:45:53;-2.20;99.90
47961;DHT22;33721;48.852;9.936;2023-02-28T04:48:26;-2.20;99.90
47961;DHT22;33721;48.852;9.936;2023-02-28T04:50:52;-2.20;99.90
47961;DHT22;33721;48.852;9.936;2023-02-28T04:53:18;-2.20;99.90
47961;DHT22;33721;48.852;9.936;2023-02-28T04:55:44;-2.20;99.90
47961;DHT22;33721;48.852;9.936;2023-02-28T04:58:10;-2.20;99.90
47961;DHT22;33721;48.852;9.936;2023-02-28T05:00:36;-2.20;99.90
47961;DHT22;33721;48.852;9.936;2023-02-28T05:03:01;-2.20;99.90
47961;DHT22;33721;48.852;9.936;2023-02-28T05:05:27;-2.20;99.90
47961;DHT22;33721;48.852;9.936;2023-02-28T05:07:53;-2.20;99.90
47961;DHT22;33721;48.852;9.936;2023-02-28T05:10:21;-2.20;99.90
47961;DHT22;33721;48.852;9.936;2023-02-28T05:12:47;-2.10;99.90
47961;DHT22;33721;48.852;9.936;2023-02-28T05:15:14;-2.10;99.90
47961;DHT22;33721;48.852;9.936;2023-02-28T05:17:40;-2.10;99.90
47961;DHT22;33721;48.852;9.936;2023-02-28T05:20:07;-2.10;99.90
47961;DHT22;33721;48.852;9.936;2023-02-28T05:22:36;-2.10;99.90
47961;DHT22;33721;48.852;9.936;2023-02-28T05:25:03;-2.10;99.90
47961;DHT22;33721;48.852;9.936;2023-02-28T05:27:28;-2.10;99.90
47961;DHT22;33721;48.852;9.936;2023-02-28T05:29:54;-2.20;99.90
47961;DHT22;33721;48.852;9.936;2023-02-28T05:32:20;-2.10;99.90
47961;DHT22;33721;48.852;9.936;2023-02-28T05:34:45;-2.10;99.90
47961;DHT22;33721;48.852;9.936;2023-02-28T05:37:15;-2.20;99.90
47961;DHT22;33721;48.852;9.936;2023-02-28T05:39:41;-2.20;99.90
47961;DHT22;33721;48.852;9.936;2023-02-28T05:42:07;-2.20;99.90
47961;DHT22;33721;48.852;9.936;2023-02-28T05:44:33;-2.20;99.90
47961;DHT22;33721;48.852;9.936;2023-02-28T05:46:59;-2.20;99.90
47961;DHT22;33721;48.852;9.936;2023-02-28T05:49:24;-2.20;99.90
47961;DHT22;33721;48.852;9.936;2023-02-28T05:51:50;-2.20;99.90
47961;DHT22;33721;48.852;9.936;2023-02-28T05:54:16;-2.20;99.90
47961;DHT22;33721;48.852;9.936;2023-02-28T05:56:41;-2.20;99.90
47961;DHT22;33721;48.852;9.936;2023-02-28T05:59:13;-2.20;99.90
47961;DHT22;33721;48.852;9.936;2023-02-28T06:01:44;-2.20;99.90
47961;DHT22;33721;48.852;9.936;2023-02-28T06:04:14;-2.20;99.90
47961;DHT22;33721;48.852;9.936;2023-02-28T06:06:49;-2.20;99.90
47961;DHT22;33721;48.852;9.936;2023-02-28T06:09:15;-2.30;99.90
47961;DHT22;33721;48.852;9.936;2023-02-28T06:11:41;-2.20;99.90
47961;DHT22;33721;48.852;9.936;2023-02-28T06:14:07;-2.20;99.90
47961;DHT22;33721;48.852;9.936;2023-02-28T06:16:34;-2.20;99.90
47961;DHT22;33721;48.852;9.936;2023-02-28T06:19:03;-2.20;99.90
47961;DHT22;33721;48.852;9.936;2023-02-28T06:21:29;-2.20;99.90
47961;DHT22;33721;48.852;9.936;2023-02-28T06:23:56;-2.20;99.90
47961;DHT22;33721;48.852;9.936;2023-02-28T06:26:23;-2.30;99.90
47961;DHT22;33721;48.852;9.936;2023-02-28T06:28:48;-2.20;99.90
47961;DHT22;33721;48.852;9.936;2023-02-28T06:31:16;-2.20;99.90
47961;DHT22;33721;48.852;9.936;2023-02-28T06:33:44;-2.20;99.90
47961;DHT22;33721;48.852;9.936;2023-02-28T06:36:11;-2.20;99.90
47961;DHT22;33721;48.852;9.936;2023-02-28T06:38:38;-2.30;99.90
47961;DHT22;33721;48.852;9.936;2023-02-28T06:41:05;-2.30;99.90
47961;DHT22;33721;48.852;9.936;2023-02-28T06:43:34;-2.30;99.90
47961;DHT22;33721;48.852;9.936;2023-02-28T06:46:03;-2.30;99.90
47961;DHT22;33721;48.852;9.936;2023-02-28T06:48:29;-2.20;99.90
47961;DHT22;33721;48.852;9.936;2023-02-28T06:51:08;-2.20;99.90
47961;DHT22;33721;48.852;9.936;2023-02-28T06:53:34;-2.20;99.90
47961;DHT22;33721;48.852;9.936;2023-02-28T06:56:07;-2.20;99.90
47961;DHT22;33721;48.852;9.936;2023-02-28T06:58:34;-2.20;99.90
47961;DHT22;33721;48.852;9.936;2023-02-28T07:01:00;-2.10;99.90
47961;DHT22;33721;48.852;9.936;2023-02-28T07:03:26;-2.10;99.90
47961;DHT22;33721;48.852;9.936;2023-02-28T07:05:52;-2.10;99.90
47961;DHT22;33721;48.852;9.936;2023-02-28T07:08:18;-2.10;99.90
47961;DHT22;33721;48.852;9.936;2023-02-28T07:10:43;-2.10;99.90
47961;DHT22;33721;48.852;9.936;2023-02-28T07:13:10;-2.10;99.90
47961;DHT22;33721;48.852;9.936;2023-02-28T07:15:36;-2.10;99.90
47961;DHT22;33721;48.852;9.936;2023-02-28T07:18:02;-2.10;99.90
47961;DHT22;33721;48.852;9.936;2023-02-28T07:20:29;-2.10;99.90
47961;DHT22;33721;48.852;9.936;2023-02-28T07:22:55;-2.10;99.90
47961;DHT22;33721;48.852;9.936;2023-02-28T07:25:26;-2.00;99.90
47961;DHT22;33721;48.852;9.936;2023-02-28T07:27:52;-1.90;99.90
47961;DHT22;33721;48.852;9.936;2023-02-28T07:30:18;-1.90;99.90
47961;DHT22;33721;48.852;9.936;2023-02-28T07:32:45;-1.90;99.90
47961;DHT22;33721;48.852;9.936;2023-02-28T07:35:10;-1.90;99.90
47961;DHT22;33721;48.852;9.936;2023-02-28T07:37:36;-1.90;99.90
47961;DHT22;33721;48.852;9.936;2023-02-28T07:40:07;-1.90;99.90
47961;DHT22;33721;48.852;9.936;2023-02-28T07:42:34;-1.90;99.90
47961;DHT22;33721;48.852;9.936;2023-02-28T07:45:00;-1.80;99.90
47961;DHT22;33721;48.852;9.936;2023-02-28T07:47:26;-1.70;99.90
47961;DHT22;33721;48.852;9.936;2023-02-28T07:49:52;-1.70;99.90
47961;DHT22;33721;48.852;9.936;2023-02-28T07:52:18;-1.70;99.90
47961;DHT22;33721;48.852;9.936;2023-02-28T07:54:43;-1.60;99.90
47961;DHT22;33721;48.852;9.936;2023-02-28T07:57:09;-1.60;99.90
47961;DHT22;33721;48.852;9.936;2023-02-28T07:59:35;-1.60;99.90
47961;DHT22;33721;48.852;9.936;2023-02-28T08:02:00;-1.50;99.90
47961;DHT22;33721;48.852;9.936;2023-02-28T08:04:26;-1.50;99.90
47961;DHT22;33721;48.852;9.936;2023-02-28T08:06:52;-1.40;99.90
47961;DHT22;33721;48.852;9.936;2023-02-28T08:09:19;-1.40;99.90
47961;DHT22;33721;48.852;9.936;2023-02-28T08:11:44;-1.40;99.90
47961;DHT22;33721;48.852;9.936;2023-02-28T08:14:10;-1.30;99.90
47961;DHT22;33721;48.852;9.936;2023-02-28T08:16:36;-1.30;99.90
47961;DHT22;33721;48.852;9.936;2023-02-28T08:19:02;-1.20;99.90
47961;DHT22;33721;48.852;9.936;2023-02-28T08:21:27;-1.10;99.90
47961;DHT22;33721;48.852;9.936;2023-02-28T08:23:53;-1.00;99.90
47961;DHT22;33721;48.852;9.936;2023-02-28T08:26:19;-1.10;99.90
47961;DHT22;33721;48.852;9.936;2023-02-28T08:28:45;-0.90;99.90
47961;DHT22;33721;48.852;9.936;2023-02-28T08:31:13;-0.90;99.90
47961;DHT22;33721;48.852;9.936;2023-02-28T08:33:40;-0.80;99.90
47961;DHT22;33721;48.852;9.936;2023-02-28T08:36:08;-0.70;99.90
47961;DHT22;33721;48.852;9.936;2023-02-28T08:38:34;-0.60;99.90
47961;DHT22;33721;48.852;9.936;2023-02-28T08:41:03;-0.70;99.90
47961;DHT22;33721;48.852;9.936;2023-02-28T08:43:31;-0.80;99.90
47961;DHT22;33721;48.852;9.936;2023-02-28T08:45:57;-0.60;99.90
47961;DHT22;33721;48.852;9.936;2023-02-28T08:48:24;-0.60;99.90
47961;DHT22;33721;48.852;9.936;2023-02-28T08:53:22;-0.40;99.90
47961;DHT22;33721;48.852;9.936;2023-02-28T08:55:58;-0.40;99.90
47961;DHT22;33721;48.852;9.936;2023-02-28T08:58:25;-0.40;99.90
47961;DHT22;33721;48.852;9.936;2023-02-28T09:00:51;-0.40;99.90
47961;DHT22;33721;48.852;9.936;2023-02-28T09:03:17;-0.30;99.90
47961;DHT22;33721;48.852;9.936;2023-02-28T09:05:56;-0.30;99.90
47961;DHT22;33721;48.852;9.936;2023-02-28T09:08:24;-0.30;99.90
47961;DHT22;33721;48.852;9.936;2023-02-28T09:10:50;-0.20;99.90
47961;DHT22;33721;48.852;9.936;2023-02-28T09:13:17;-0.10;99.90
47961;DHT22;33721;48.852;9.936;2023-02-28T09:15:43;0.20;99.90
47961;DHT22;33721;48.852;9.936;2023-02-28T09:18:09;0.30;99.90
47961;DHT22;33721;48.852;9.936;2023-02-28T09:20:38;0.30;99.90
47961;DHT22;33721;48.852;9.936;2023-02-28T09:23:04;0.20;99.90
47961;DHT22;33721;48.852;9.936;2023-02-28T09:25:30;0.10;99.90
47961;DHT22;33721;48.852;9.936;2023-02-28T09:27:55;0.10;99.90
47961;DHT22;33721;48.852;9.936;2023-02-28T09:30:21;0.10;99.90
47961;DHT22;33721;48.852;9.936;2023-02-28T09:32:47;0.30;99.90
47961;DHT22;33721;48.852;9.936;2023-02-28T09:35:18;0.30;99.90
47961;DHT22;33721;48.852;9.936;2023-02-28T09:37:44;0.40;99.90
47961;DHT22;33721;48.852;9.936;2023-02-28T09:40:11;0.50;99.90
47961;DHT22;33721;48.852;9.936;2023-02-28T09:42:38;0.50;99.90
47961;DHT22;33721;48.852;9.936;2023-02-28T09:45:21;0.50;99.90
47961;DHT22;33721;48.852;9.936;2023-02-28T09:47:48;0.40;99.90
47961;DHT22;33721;48.852;9.936;2023-02-28T09:52:59;0.60;99.90
47961;DHT22;33721;48.852;9.936;2023-02-28T09:55:39;0.60;99.90
47961;DHT22;33721;48.852;9.936;2023-02-28T09:58:20;0.60;99.90
47961;DHT22;33721;48.852;9.936;2023-02-28T10:00:57;0.70;99.90
47961;DHT22;33721;48.852;9.936;2023-02-28T10:03:36;0.80;99.90
47961;DHT22;33721;48.852;9.936;2023-02-28T10:06:11;0.80;99.90
47961;DHT22;33721;48.852;9.936;2023-02-28T10:09:23;0.90;99.90
47961;DHT22;33721;48.852;9.936;2023-02-28T10:11:30;1.00;99.90
47961;DHT22;33721;48.852;9.936;2023-02-28T10:14:16;0.90;99.90
47961;DHT22;33721;48.852;9.936;2023-02-28T10:16:56;0.90;99.90
47961;DHT22;33721;48.852;9.936;2023-02-28T10:19:33;1.00;99.90
47961;DHT22;33721;48.852;9.936;2023-02-28T10:24:42;1.30;99.90
47961;DHT22;33721;48.852;9.936;2023-02-28T10:27:26;1.50;99.90
47961;DHT22;33721;48.852;9.936;2023-02-28T10:29:56;1.50;99.90
47961;DHT22;33721;48.852;9.936;2023-02-28T10:32:27;1.60;99.90
47961;DHT22;33721;48.852;9.936;2023-02-28T10:35:15;1.80;99.90
47961;DHT22;33721;48.852;9.936;2023-02-28T10:37:43;2.20;99.90
47961;DHT22;33721;48.852;9.936;2023-02-28T10:40:27;2.40;99.90
47961;DHT22;33721;48.852;9.936;2023-02-28T10:45:33;1.70;99.90
47961;DHT22;33721;48.852;9.936;2023-02-28T10:48:26;1.60;99.90
47961;DHT22;33721;48.852;9.936;2023-02-28T10:50:53;1.50;99.90
47961;DHT22;33721;48.852;9.936;2023-02-28T11:03:55;1.80;99.90
47961;DHT22;33721;48.852;9.936;2023-02-28T11:06:32;2.00;99.90
47961;DHT22;33721;48.852;9.936;2023-02-28T11:11:47;2.40;99.90
47961;DHT22;33721;48.852;9.936;2023-02-28T11:14:21;2.80;99.90
47961;DHT22;33721;48.852;9.936;2023-02-28T11:16:48;2.90;99.90
47961;DHT22;33721;48.852;9.936;2023-02-28T11:19:22;3.20;99.90
47961;DHT22;33721;48.852;9.936;2023-02-28T11:22:00;3.40;99.90
47961;DHT22;33721;48.852;9.936;2023-02-28T11:24:28;3.50;99.90
47961;DHT22;33721;48.852;9.936;2023-02-28T11:26:54;3.60;99.90
47961;DHT22;33721;48.852;9.936;2023-02-28T11:29:34;3.60;99.90
47961;DHT22;33721;48.852;9.936;2023-02-28T11:32:12;3.70;99.90
47961;DHT22;33721;48.852;9.936;2023-02-28T11:34:40;3.50;99.90
47961;DHT22;33721;48.852;9.936;2023-02-28T11:37:15;3.40;99.90
47961;DHT22;33721;48.852;9.936;2023-02-28T11:39:42;3.40;99.90
47961;DHT22;33721;48.852;9.936;2023-02-28T11:48:05;4.20;99.90
47961;DHT22;33721;48.852;9.936;2023-02-28T12:01:52;4.50;99.90
47961;DHT22;33721;48.852;9.936;2023-02-28T12:19:11;4.20;99.90
47961;DHT22;33721;48.852;9.936;2023-02-28T12:21:15;4.50;99.90
47961;DHT22;33721;48.852;9.936;2023-02-28T12:26:39;4.60;99.90
47961;DHT22;33721;48.852;9.936;2023-02-28T12:29:22;4.80;99.90
47961;DHT22;33721;48.852;9.936;2023-02-28T12:34:37;5.10;99.90
47961;DHT22;33721;48.852;9.936;2023-02-28T12:37:10;5.10;99.90
47961;DHT22;33721;48.852;9.936;2023-02-28T12:39:46;5.10;99.90
47961;DHT22;33721;48.852;9.936;2023-02-28T12:42:19;5.40;99.90
47961;DHT22;33721;48.852;9.936;2023-02-28T12:44:59;5.40;99.90
47961;DHT22;33721;48.852;9.936;2023-02-28T12:47:25;5.20;99.90
47961;DHT22;33721;48.852;9.936;2023-02-28T12:50:02;5.40;99.90
47961;DHT22;33721;48.852;9.936;2023-02-28T12:52:37;5.50;99.90
47961;DHT22;33721;48.852;9.936;2023-02-28T12:55:12;5.40;99.90
47961;DHT22;33721;48.852;9.936;2023-02-28T12:57:48;5.50;99.90
47961;DHT22;33721;48.852;9.936;2023-02-28T13:00:18;5.70;99.90
47961;DHT22;33721;48.852;9.936;2023-02-28T13:06:04;5.90;99.90
47961;DHT22;33721;48.852;9.936;2023-02-28T13:13:58;5.80;99.20
47961;DHT22;33721;48.852;9.936;2023-02-28T13:16:25;6.00;99.10
47961;DHT22;33721;48.852;9.936;2023-02-28T13:18:50;5.80;98.90
47961;DHT22;33721;48.852;9.936;2023-02-28T13:21:27;5.30;99.70
47961;DHT22;33721;48.852;9.936;2023-02-28T13:34:34;5.50;99.90
47961;DHT22;33721;48.852;9.936;2023-02-28T13:40:39;4.80;99.90
47961;DHT22;33721;48.852;9.936;2023-02-28T13:42:49;4.70;99.90
47961;DHT22;33721;48.852;9.936;2023-02-28T13:45:23;4.80;99.90
47961;DHT22;33721;48.852;9.936;2023-02-28T13:55:46;4.80;99.90
47961;DHT22;33721;48.852;9.936;2023-02-28T13:58:38;4.70;99.90
47961;DHT22;33721;48.852;9.936;2023-02-28T14:06:33;4.50;99.90
47961;DHT22;33721;48.852;9.936;2023-02-28T14:09:00;4.50;99.90
47961;DHT22;33721;48.852;9.936;2023-02-28T14:11:34;4.50;99.90
47961;DHT22;33721;48.852;9.936;2023-02-28T14:14:01;4.30;99.90
47961;DHT22;33721;48.852;9.936;2023-02-28T14:16:41;4.20;99.90
47961;DHT22;33721;48.852;9.936;2023-02-28T14:19:24;4.30;99.90
47961;DHT22;33721;48.852;9.936;2023-02-28T14:21:56;4.20;99.90
47961;DHT22;33721;48.852;9.936;2023-02-28T14:24:42;4.30;99.90
47961;DHT22;33721;48.852;9.936;2023-02-28T14:35:19;4.80;99.90
47961;DHT22;33721;48.852;9.936;2023-02-28T14:37:47;4.80;99.90
47961;DHT22;33721;48.852;9.936;2023-02-28T14:40:27;4.70;99.90
47961;DHT22;33721;48.852;9.936;2023-02-28T14:42:59;4.70;99.90
47961;DHT22;33721;48.852;9.936;2023-02-28T14:45:25;4.80;99.90
47961;DHT22;33721;48.852;9.936;2023-02-28T14:47:52;4.90;99.90
47961;DHT22;33721;48.852;9.936;2023-02-28T14:50:24;4.80;99.90
47961;DHT22;33721;48.852;9.936;2023-02-28T14:52:53;4.70;99.90
47961;DHT22;33721;48.852;9.936;2023-02-28T14:55:23;4.70;99.90
47961;DHT22;33721;48.852;9.936;2023-02-28T14:58:28;4.70;99.90
47961;DHT22;33721;48.852;9.936;2023-02-28T15:00:56;4.60;99.90
47961;DHT22;33721;48.852;9.936;2023-02-28T15:03:37;4.80;99.90
47961;DHT22;33721;48.852;9.936;2023-02-28T15:06:15;4.90;99.90
47961;DHT22;33721;48.852;9.936;2023-02-28T15:08:43;5.10;99.90
47961;DHT22;33721;48.852;9.936;2023-02-28T15:11:17;5.40;99.90
47961;DHT22;33721;48.852;9.936;2023-02-28T15:13:56;5.10;99.90
47961;DHT22;33721;48.852;9.936;2023-02-28T15:16:29;5.00;99.90
47961;DHT22;33721;48.852;9.936;2023-02-28T15:19:33;5.00;99.90
47961;DHT22;33721;48.852;9.936;2023-02-28T15:22:07;4.90;99.90
47961;DHT22;33721;48.852;9.936;2023-02-28T15:27:10;4.60;99.90
47961;DHT22;33721;48.852;9.936;2023-02-28T15:29:47;4.50;99.90
47961;DHT22;33721;48.852;9.936;2023-02-28T15:32:30;4.30;99.90
47961;DHT22;33721;48.852;9.936;2023-02-28T15:34:58;4.30;99.90
47961;DHT22;33721;48.852;9.936;2023-02-28T15:39:53;4.30;99.90
47961;DHT22;33721;48.852;9.936;2023-02-28T15:42:22;4.20;99.90
47961;DHT22;33721;48.852;9.936;2023-02-28T15:44:47;4.30;99.90
47961;DHT22;33721;48.852;9.936;2023-02-28T15:47:19;4.20;99.90
47961;DHT22;33721;48.852;9.936;2023-02-28T15:49:55;4.10;99.90
47961;DHT22;33721;48.852;9.936;2023-02-28T15:52:39;4.00;99.90
47961;DHT22;33721;48.852;9.936;2023-02-28T15:55:21;4.00;99.90
47961;DHT22;33721;48.852;9.936;2023-02-28T15:57:52;3.90;99.90
47961;DHT22;33721;48.852;9.936;2023-02-28T16:00:23;3.80;99.90
47961;DHT22;33721;48.852;9.936;2023-02-28T16:02:49;3.80;99.90
47961;DHT22;33721;48.852;9.936;2023-02-28T16:05:28;3.80;99.90
47961;DHT22;33721;48.852;9.936;2023-02-28T16:07:58;3.70;99.90
47961;DHT22;33721;48.852;9.936;2023-02-28T16:10:25;3.60;99.90
47961;DHT22;33721;48.852;9.936;2023-02-28T16:12:56;3.50;99.90
47961;DHT22;33721;48.852;9.936;2023-02-28T16:15:32;3.50;99.90
47961;DHT22;33721;48.852;9.936;2023-02-28T16:18:00;3.40;99.90
47961;DHT22;33721;48.852;9.936;2023-02-28T16:20:28;3.40;99.90
47961;DHT22;33721;48.852;9.936;2023-02-28T16:22:54;3.40;99.90
47961;DHT22;33721;48.852;9.936;2023-02-28T16:25:27;3.30;99.90
47961;DHT22;33721;48.852;9.936;2023-02-28T16:27:54;3.30;99.90
47961;DHT22;33721;48.852;9.936;2023-02-28T16:30:26;3.20;99.90
47961;DHT22;33721;48.852;9.936;2023-02-28T16:32:53;3.10;99.90
47961;DHT22;33721;48.852;9.936;2023-02-28T16:35:20;3.10;99.90
47961;DHT22;33721;48.852;9.936;2023-02-28T16:37:46;3.00;99.90
47961;DHT22;33721;48.852;9.936;2023-02-28T16:40:18;2.90;99.90
47961;DHT22;33721;48.852;9.936;2023-02-28T16:42:46;2.90;99.90
47961;DHT22;33721;48.852;9.936;2023-02-28T16:45:22;2.80;99.90
47961;DHT22;33721;48.852;9.936;2023-02-28T16:47:48;2.70;99.90
47961;DHT22;33721;48.852;9.936;2023-02-28T16:50:20;2.70;99.90
47961;DHT22;33721;48.852;9.936;2023-02-28T16:52:46;2.70;99.90
47961;DHT22;33721;48.852;9.936;2023-02-28T16:55:13;2.70;99.90
47961;DHT22;33721;48.852;9.936;2023-02-28T16:57:39;2.60;99.90
47961;DHT22;33721;48.852;9.936;2023-02-28T17:00:07;2.60;99.90
47961;DHT22;33721;48.852;9.936;2023-02-28T17:02:34;2.50;99.90
47961;DHT22;33721;48.852;9.936;2023-02-28T17:05:00;2.50;99.90
47961;DHT22;33721;48.852;9.936;2023-02-28T17:07:25;2.50;99.90
47961;DHT22;33721;48.852;9.936;2023-02-28T17:09:51;2.40;99.90
47961;DHT22;33721;48.852;9.936;2023-02-28T17:12:17;2.40;99.90
47961;DHT22;33721;48.852;9.936;2023-02-28T17:14:42;2.30;99.90
47961;DHT22;33721;48.852;9.936;2023-02-28T17:17:17;2.30;99.90
47961;DHT22;33721;48.852;9.936;2023-02-28T17:19:43;2.20;99.90
47961;DHT22;33721;48.852;9.936;2023-02-28T17:22:11;2.20;99.90
47961;DHT22;33721;48.852;9.936;2023-02-28T17:24:37;2.20;99.90
47961;DHT22;33721;48.852;9.936;2023-02-28T17:27:03;2.10;99.90
47961;DHT22;33721;48.852;9.936;2023-02-28T17:29:29;2.10;99.90
47961;DHT22;33721;48.852;9.936;2023-02-28T17:31:54;2.00;99.90
47961;DHT22;33721;48.852;9.936;2023-02-28T17:34:21;2.00;99.90
47961;DHT22;33721;48.852;9.936;2023-02-28T17:36:48;1.90;99.90
47961;DHT22;33721;48.852;9.936;2023-02-28T17:39:15;1.90;99.90
47961;DHT22;33721;48.852;9.936;2023-02-28T17:41:45;1.80;99.90
47961;DHT22;33721;48.852;9.936;2023-02-28T17:44:11;1.80;99.90
47961;DHT22;33721;48.852;9.936;2023-02-28T17:46:37;1.70;99.90
47961;DHT22;33721;48.852;9.936;2023-02-28T17:49:03;1.70;99.90
47961;DHT22;33721;48.852;9.936;2023-02-28T17:51:29;1.70;99.90
47961;DHT22;33721;48.852;9.936;2023-02-28T17:53:54;1.60;99.90
47961;DHT22;33721;48.852;9.936;2023-02-28T17:56:25;1.60;99.90
47961;DHT22;33721;48.852;9.936;2023-02-28T17:58:51;1.60;99.90
47961;DHT22;33721;48.852;9.936;2023-02-28T18:01:18;1.60;99.90
47961;DHT22;33721;48.852;9.936;2023-02-28T18:03:45;1.50;99.90
47961;DHT22;33721;48.852;9.936;2023-02-28T18:08:46;1.40;99.90
47961;DHT22;33721;48.852;9.936;2023-02-28T18:11:12;1.40;99.90
47961;DHT22;33721;48.852;9.936;2023-02-28T18:13:52;1.40;99.90
47961;DHT22;33721;48.852;9.936;2023-02-28T18:16:19;1.30;99.90
47961;DHT22;33721;48.852;9.936;2023-02-28T18:18:45;1.30;99.90
47961;DHT22;33721;48.852;9.936;2023-02-28T18:21:12;1.20;99.90